createdAt,value
2018-02-23T00:00:05.508Z,72.44
2018-02-23T00:00:31.599Z,72.34
2018-02-23T00:00:57.702Z,72.44
2018-02-23T00:01:23.810Z,72.25
2018-02-23T00:01:49.907Z,72.34
2018-02-23T00:02:16.007Z,72.34
2018-02-23T00:02:42.110Z,72.25
2018-02-23T00:03:08.207Z,72.34
2018-02-23T00:03:34.301Z,72.34
2018-02-23T00:04:00.400Z,72.53
2018-02-23T00:04:26.499Z,72.63
2018-02-23T00:04:52.602Z,72.25
2018-02-23T00:05:18.695Z,72.63
2018-02-23T00:05:44.807Z,72.44
2018-02-23T00:06:10.903Z,72.34
2018-02-23T00:06:37.001Z,72.25
2018-02-23T00:07:03.109Z,72.53
2018-02-23T00:07:29.204Z,72.53
2018-02-23T00:07:55.306Z,72.25
2018-02-23T00:08:21.408Z,72.73
2018-02-23T00:08:47.505Z,72.53
2018-02-23T00:09:13.607Z,72.63
2018-02-23T00:09:39.718Z,72.82
2018-02-23T00:10:05.815Z,72.44
2018-02-23T00:10:31.918Z,72.25
2018-02-23T00:10:58.014Z,72.73
2018-02-23T00:11:24.116Z,72.25
2018-02-23T00:11:50.238Z,72.44
2018-02-23T00:12:16.332Z,72.34
2018-02-23T00:12:42.434Z,72.44
2018-02-23T00:13:08.528Z,72.63
2018-02-23T00:13:34.646Z,72.44
2018-02-23T00:14:00.750Z,72.16
2018-02-23T00:14:26.847Z,72.44
2018-02-23T00:14:52.950Z,72.44
2018-02-23T00:15:19.045Z,71.59
2018-02-23T00:15:45.148Z,71.97
2018-02-23T00:16:11.250Z,71.69
2018-02-23T00:16:37.422Z,71.78
2018-02-23T00:17:03.442Z,72.06
2018-02-23T00:17:29.546Z,71.69
2018-02-23T00:17:55.645Z,71.88
2018-02-23T00:18:21.739Z,71.88
2018-02-23T00:18:47.844Z,71.59
2018-02-23T00:19:13.943Z,71.97
2018-02-23T00:19:40.041Z,71.97
2018-02-23T00:20:06.136Z,71.88
2018-02-23T00:20:32.241Z,71.97
2018-02-23T00:20:58.340Z,72.06
2018-02-23T00:21:24.441Z,71.59
2018-02-23T00:21:50.545Z,71.4
2018-02-23T00:22:16.664Z,71.21
2018-02-23T00:22:42.765Z,71.31
2018-02-23T00:23:08.882Z,72.06
2018-02-23T00:23:34.974Z,71.91
2018-02-23T00:24:01.076Z,71.31
2018-02-23T00:24:27.180Z,71.31
2018-02-23T00:24:53.278Z,71.31
2018-02-23T00:25:19.394Z,71.62
2018-02-23T00:25:45.495Z,71.72
2018-02-23T00:26:11.628Z,71.44
2018-02-23T00:26:37.698Z,70.87
2018-02-23T00:27:03.797Z,70.68
2018-02-23T00:27:29.901Z,71.06
2018-02-23T00:27:55.997Z,70.58
2018-02-23T00:28:22.107Z,70.87
2018-02-23T00:28:48.210Z,70.78
2018-02-23T00:29:14.313Z,71.25
2018-02-23T00:29:40.406Z,71.15
2018-02-23T00:30:06.512Z,70.97
2018-02-23T00:30:32.607Z,71.53
2018-02-23T00:30:58.697Z,70.78
2018-02-23T00:31:24.800Z,70.78
2018-02-23T00:31:50.900Z,70.87
2018-02-23T00:32:16.997Z,70.87
2018-02-23T00:32:43.120Z,70.78
2018-02-23T00:33:09.221Z,71.25
2018-02-23T00:33:35.320Z,71.53
2018-02-23T00:34:01.415Z,71.44
2018-02-23T00:34:27.510Z,70.68
2018-02-23T00:34:53.612Z,70.87
2018-02-23T00:35:19.710Z,70.87
2018-02-23T00:35:45.805Z,71.15
2018-02-23T00:36:11.900Z,70.93
2018-02-23T00:36:38.004Z,71.15
2018-02-23T00:37:04.099Z,71.4
2018-02-23T00:37:30.198Z,71.31
2018-02-23T00:37:56.296Z,71.12
2018-02-23T00:38:22.420Z,71.4
2018-02-23T00:38:48.520Z,71.12
2018-02-23T00:39:14.614Z,72.25
2018-02-23T00:39:40.737Z,71.97
2018-02-23T00:40:06.838Z,72.25
2018-02-23T00:40:32.935Z,72.63
2018-02-23T00:40:59.034Z,72.63
2018-02-23T00:41:25.130Z,72.25
2018-02-23T00:41:51.233Z,72.53
2018-02-23T00:42:17.333Z,72.16
2018-02-23T00:42:43.427Z,72.63
2018-02-23T00:43:09.532Z,72.25
2018-02-23T00:43:35.631Z,72.44
2018-02-23T00:44:01.726Z,72.44
2018-02-23T00:44:27.827Z,72.63
2018-02-23T00:44:53.926Z,72.06
2018-02-23T00:45:20.044Z,72.16
2018-02-23T00:45:46.145Z,72.25
2018-02-23T00:46:12.243Z,72.25
2018-02-23T00:46:38.342Z,72.25
2018-02-23T00:47:04.440Z,72.06
2018-02-23T00:47:30.535Z,72.63
2018-02-23T00:47:56.639Z,72.63
2018-02-23T00:48:22.734Z,72.63
2018-02-23T00:48:48.839Z,73.2
2018-02-23T00:49:14.933Z,73.3
2018-02-23T00:49:41.038Z,73.01
2018-02-23T00:50:07.140Z,73.49
2018-02-23T00:50:33.239Z,73.68
2018-02-23T00:50:59.340Z,73.3
2018-02-23T00:51:25.439Z,73.3
2018-02-23T00:51:51.544Z,73.2
2018-02-23T00:52:17.634Z,73.68
2018-02-23T00:52:43.737Z,73.49
2018-02-23T00:53:09.832Z,73.39
2018-02-23T00:53:35.929Z,73.3
2018-02-23T00:54:02.031Z,73.68
2018-02-23T00:54:28.131Z,73.2
2018-02-23T00:54:54.236Z,73.68
2018-02-23T00:55:20.329Z,73.96
2018-02-23T00:55:46.428Z,73.68
2018-02-23T00:56:12.533Z,73.49
2018-02-23T00:56:38.645Z,73.77
2018-02-23T00:57:04.740Z,74.05
2018-02-23T00:57:30.842Z,73.77
2018-02-23T00:57:56.937Z,73.86
2018-02-23T00:58:23.043Z,74.15
2018-02-23T00:58:49.167Z,74.43
2018-02-23T00:59:15.262Z,74.62
2018-02-23T00:59:41.384Z,74.15
2018-02-23T01:00:07.481Z,74.43
2018-02-23T01:00:33.583Z,74.33
2018-02-23T01:00:59.677Z,74.33
2018-02-23T01:01:25.792Z,74.52
2018-02-23T01:01:51.914Z,74.15
2018-02-23T01:02:18.020Z,74.15
2018-02-23T01:02:44.121Z,74.33
2018-02-23T01:03:10.208Z,74.62
2018-02-23T01:03:36.312Z,74.9
2018-02-23T01:04:02.407Z,75
2018-02-23T01:04:28.504Z,75.19
2018-02-23T01:04:54.607Z,74.81
2018-02-23T01:05:20.702Z,74.81
2018-02-23T01:05:46.803Z,74.43
2018-02-23T01:06:12.900Z,74.71
2018-02-23T01:06:39.005Z,74.43
2018-02-23T01:07:05.141Z,75.09
2018-02-23T01:07:31.231Z,74.71
2018-02-23T01:07:57.334Z,74.81
2018-02-23T01:08:23.445Z,74.24
2018-02-23T01:08:49.548Z,74.43
2018-02-23T01:09:15.648Z,74.33
2018-02-23T01:09:41.761Z,74.33
2018-02-23T01:10:07.867Z,74.33
2018-02-23T01:10:33.985Z,74.33
2018-02-23T01:11:00.081Z,74.24
2018-02-23T01:11:26.195Z,74.24
2018-02-23T01:11:52.297Z,74.43
2018-02-23T01:12:18.411Z,74.62
2018-02-23T01:12:44.523Z,74.71
2018-02-23T01:13:10.639Z,74.52
2018-02-23T01:13:36.720Z,74.33
2018-02-23T01:14:02.824Z,74.24
2018-02-23T01:14:28.927Z,74.15
2018-02-23T01:14:55.028Z,74.15
2018-02-23T01:15:21.149Z,74.24
2018-02-23T01:15:47.241Z,74.24
2018-02-23T01:16:13.345Z,74.62
2018-02-23T01:16:39.445Z,74.24
2018-02-23T01:17:05.540Z,74.05
2018-02-23T01:17:31.642Z,74.71
2018-02-23T01:17:57.736Z,74.18
2018-02-23T01:18:23.835Z,74.47
2018-02-23T01:18:49.941Z,74.43
2018-02-23T01:19:16.069Z,74.05
2018-02-23T01:19:42.143Z,74.05
2018-02-23T01:20:08.243Z,73.96
2018-02-23T01:20:34.345Z,74.52
2018-02-23T01:21:00.439Z,74.28
2018-02-23T01:21:26.538Z,74.28
2018-02-23T01:21:52.641Z,74.09
2018-02-23T01:22:18.731Z,74.28
2018-02-23T01:22:44.857Z,74.28
2018-02-23T01:23:10.958Z,74.28
2018-02-23T01:23:37.061Z,74.37
2018-02-23T01:24:03.162Z,74.33
2018-02-23T01:24:29.262Z,74.18
2018-02-23T01:24:55.367Z,74.37
2018-02-23T01:25:21.462Z,74.47
2018-02-23T01:25:47.559Z,74.24
2018-02-23T01:26:13.668Z,74.09
2018-02-23T01:26:39.795Z,74.28
2018-02-23T01:27:05.882Z,74.37
2018-02-23T01:27:31.977Z,74.24
2018-02-23T01:27:58.110Z,74.47
2018-02-23T01:28:24.210Z,74.05
2018-02-23T01:28:50.308Z,74.75
2018-02-23T01:29:16.427Z,75.09
2018-02-23T01:29:42.521Z,74.71
2018-02-23T01:30:08.624Z,74.9
2018-02-23T01:30:34.721Z,74.85
2018-02-23T01:31:00.841Z,74.85
2018-02-23T01:31:26.935Z,74.85
2018-02-23T01:31:53.033Z,74.85
2018-02-23T01:32:19.137Z,74.85
2018-02-23T01:32:45.237Z,74.09
2018-02-23T01:33:11.346Z,74.43
2018-02-23T01:33:37.440Z,74.81
2018-02-23T01:34:03.543Z,75
2018-02-23T01:34:29.645Z,74.81
2018-02-23T01:34:55.746Z,74.81
2018-02-23T01:35:21.860Z,75.19
2018-02-23T01:35:47.957Z,75.28
2018-02-23T01:36:14.096Z,75.57
2018-02-23T01:36:40.234Z,75.28
2018-02-23T01:37:06.353Z,75.19
2018-02-23T01:37:32.473Z,75.38
2018-02-23T01:37:58.571Z,75.76
2018-02-23T01:38:24.685Z,75.19
2018-02-23T01:38:50.802Z,75.47
2018-02-23T01:39:16.919Z,75.95
2018-02-23T01:39:43.012Z,75.66
2018-02-23T01:40:09.128Z,75.66
2018-02-23T01:40:35.219Z,75.66
2018-02-23T01:41:01.347Z,75.38
2018-02-23T01:41:27.435Z,75.66
2018-02-23T01:41:53.538Z,76.14
2018-02-23T01:42:19.654Z,75.57
2018-02-23T01:42:45.753Z,75.76
2018-02-23T01:43:11.859Z,75.95
2018-02-23T01:43:37.959Z,76.04
2018-02-23T01:44:04.066Z,76.14
2018-02-23T01:44:30.177Z,76.04
2018-02-23T01:44:56.277Z,76.61
2018-02-23T01:45:22.387Z,76.51
2018-02-23T01:45:48.481Z,76.7
2018-02-23T01:46:14.587Z,76.51
2018-02-23T01:46:40.691Z,76.61
2018-02-23T01:47:06.795Z,76.32
2018-02-23T01:47:32.895Z,76.8
2018-02-23T01:47:59.032Z,76.7
2018-02-23T01:48:25.135Z,76.51
2018-02-23T01:48:51.225Z,76.51
2018-02-23T01:49:17.336Z,76.61
2018-02-23T01:49:43.418Z,76.32
2018-02-23T01:50:09.522Z,76.7
2018-02-23T01:50:35.622Z,76.8
2018-02-23T01:51:01.719Z,76.61
2018-02-23T01:51:27.830Z,76.61
2018-02-23T01:51:53.929Z,76.61
2018-02-23T01:52:20.042Z,76.61
2018-02-23T01:52:46.165Z,76.61
2018-02-23T01:53:12.260Z,76.61
2018-02-23T01:53:38.358Z,76.7
2018-02-23T01:54:04.468Z,76.32
2018-02-23T01:54:30.592Z,76.8
2018-02-23T01:54:56.705Z,76.51
2018-02-23T01:55:22.838Z,76.32
2018-02-23T01:55:48.908Z,76.32
2018-02-23T01:56:15.611Z,76.51
2018-02-23T01:56:41.717Z,75.85
2018-02-23T01:57:07.820Z,76.8
2018-02-23T01:57:33.932Z,76.51
2018-02-23T01:58:00.048Z,76.14
2018-02-23T01:58:26.153Z,76.61
2018-02-23T01:58:52.248Z,76.42
2018-02-23T01:59:18.350Z,76.61
2018-02-23T01:59:44.453Z,76.32
2018-02-23T02:00:10.572Z,76.7
2018-02-23T02:00:36.672Z,76.61
2018-02-23T02:01:02.786Z,76.42
2018-02-23T02:01:28.886Z,76.61
2018-02-23T02:01:54.987Z,76.8
2018-02-23T02:02:21.105Z,76.51
2018-02-23T02:02:47.222Z,76.89
2018-02-23T02:03:13.333Z,76.61
2018-02-23T02:03:39.460Z,76.7
2018-02-23T02:04:05.586Z,76.89
2018-02-23T02:04:31.688Z,76.42
2018-02-23T02:04:57.922Z,76.51
2018-02-23T02:05:24.028Z,76.7
2018-02-23T02:05:50.103Z,76.61
2018-02-23T02:06:16.277Z,76.51
2018-02-23T02:06:42.375Z,76.89
2018-02-23T02:07:08.481Z,76.51
2018-02-23T02:07:34.593Z,76.99
2018-02-23T02:08:00.739Z,77.37
2018-02-23T02:08:26.906Z,77.46
2018-02-23T02:08:53.005Z,77.27
2018-02-23T02:09:19.107Z,77.56
2018-02-23T02:09:45.206Z,77.46
2018-02-23T02:10:11.308Z,77.46
2018-02-23T02:10:37.401Z,77.27
2018-02-23T02:11:03.496Z,77.37
2018-02-23T02:11:29.598Z,77.65
2018-02-23T02:11:55.710Z,77.94
2018-02-23T02:12:21.813Z,77.65
2018-02-23T02:12:47.909Z,77.27
2018-02-23T02:13:14.010Z,77.84
2018-02-23T02:13:40.112Z,77.94
2018-02-23T02:14:06.210Z,77.94
2018-02-23T02:14:32.306Z,77.65
2018-02-23T02:14:58.401Z,77.84
2018-02-23T02:15:24.498Z,77.94
2018-02-23T02:15:50.600Z,77.75
2018-02-23T02:16:16.703Z,77.75
2018-02-23T02:16:42.812Z,78.22
2018-02-23T02:17:08.915Z,78.13
2018-02-23T02:17:35.012Z,78.13
2018-02-23T02:18:01.110Z,78.41
2018-02-23T02:18:27.214Z,78.22
2018-02-23T02:18:53.311Z,78.5
2018-02-23T02:19:19.418Z,77.94
2018-02-23T02:19:45.514Z,78.79
2018-02-23T02:20:11.626Z,78.69
2018-02-23T02:20:37.724Z,78.59
2018-02-23T02:21:03.828Z,78.5
2018-02-23T02:21:29.924Z,78.59
2018-02-23T02:21:56.026Z,78.41
2018-02-23T02:22:22.132Z,78.31
2018-02-23T02:22:48.230Z,78.59
2018-02-23T02:23:14.330Z,78.79
2018-02-23T02:23:40.433Z,78.98
2018-02-23T02:24:06.531Z,78.59
2018-02-23T02:24:32.631Z,78.98
2018-02-23T02:24:58.726Z,78.98
2018-02-23T02:25:24.828Z,78.98
2018-02-23T02:25:50.950Z,78.79
2018-02-23T02:26:17.045Z,78.69
2018-02-23T02:26:43.162Z,79.55
2018-02-23T02:27:09.271Z,79.55
2018-02-23T02:27:35.373Z,79.07
2018-02-23T02:28:01.476Z,79.45
2018-02-23T02:28:27.590Z,79.36
2018-02-23T02:28:53.707Z,79.55
2018-02-23T02:29:19.815Z,79.83
2018-02-23T02:29:45.912Z,79.64
2018-02-23T02:30:12.015Z,79.83
2018-02-23T02:30:38.119Z,79.83
2018-02-23T02:31:04.216Z,79.93
2018-02-23T02:31:30.324Z,79.93
2018-02-23T02:31:56.434Z,79.83
2018-02-23T02:32:22.534Z,80.11
2018-02-23T02:32:48.632Z,80.11
2018-02-23T02:33:14.748Z,79.93
2018-02-23T02:33:40.860Z,80.21
2018-02-23T02:34:06.968Z,80.11
2018-02-23T02:34:33.062Z,79.93
2018-02-23T02:34:59.168Z,79.83
2018-02-23T02:35:25.264Z,79.83
2018-02-23T02:35:51.363Z,79.83
2018-02-23T02:36:17.472Z,79.74
2018-02-23T02:36:43.579Z,79.74
2018-02-23T02:37:09.714Z,79.93
2018-02-23T02:37:35.818Z,80.02
2018-02-23T02:38:01.918Z,79.55
2018-02-23T02:38:28.019Z,79.83
2018-02-23T02:38:54.125Z,79.55
2018-02-23T02:39:20.230Z,79.93
2018-02-23T02:39:46.317Z,79.83
2018-02-23T02:40:12.418Z,79.83
2018-02-23T02:40:38.512Z,80.21
2018-02-23T02:41:04.610Z,79.64
2018-02-23T02:41:30.709Z,79.74
2018-02-23T02:41:56.808Z,79.83
2018-02-23T02:42:22.930Z,80.11
2018-02-23T02:42:49.025Z,80.11
2018-02-23T02:43:15.129Z,79.55
2018-02-23T02:43:41.226Z,79.93
2018-02-23T02:44:07.320Z,80.02
2018-02-23T02:44:33.423Z,79.64
2018-02-23T02:44:59.535Z,79.93
2018-02-23T02:45:25.638Z,79.93
2018-02-23T02:45:51.751Z,79.83
2018-02-23T02:46:17.849Z,79.64
2018-02-23T02:46:43.951Z,79.74
2018-02-23T02:47:10.062Z,79.83
2018-02-23T02:47:36.165Z,79.93
2018-02-23T02:48:02.272Z,80.11
2018-02-23T02:48:28.366Z,79.83
2018-02-23T02:48:54.472Z,80.02
2018-02-23T02:49:20.576Z,79.93
2018-02-23T02:49:46.673Z,79.74
2018-02-23T02:50:12.772Z,80.11
2018-02-23T02:50:38.873Z,79.93
2018-02-23T02:51:04.972Z,79.83
2018-02-23T02:51:31.064Z,79.83
2018-02-23T02:51:57.167Z,79.36
2018-02-23T02:52:23.258Z,79.93
2018-02-23T02:52:49.373Z,80.21
2018-02-23T02:53:15.497Z,79.93
2018-02-23T02:53:41.602Z,80.11
2018-02-23T02:54:07.695Z,80.02
2018-02-23T02:54:33.793Z,79.93
2018-02-23T02:54:59.899Z,79.74
2018-02-23T02:55:26.006Z,79.83
2018-02-23T02:55:52.095Z,79.64
2018-02-23T02:56:18.198Z,79.74
2018-02-23T02:56:44.314Z,79.64
2018-02-23T02:57:10.408Z,79.83
2018-02-23T02:57:36.527Z,79.64
2018-02-23T02:58:02.629Z,79.93
2018-02-23T02:58:28.722Z,79.93
2018-02-23T02:58:54.820Z,79.83
2018-02-23T02:59:20.923Z,79.83
2018-02-23T02:59:47.032Z,79.83
2018-02-23T03:00:13.134Z,80.11
2018-02-23T03:00:39.257Z,79.93
2018-02-23T03:01:05.350Z,79.83
2018-02-23T03:01:31.453Z,79.64
2018-02-23T03:01:57.563Z,79.64
2018-02-23T03:02:23.666Z,80.02
2018-02-23T03:02:49.758Z,80.02
2018-02-23T03:03:15.876Z,80.3
2018-02-23T03:03:41.978Z,80.3
2018-02-23T03:04:08.092Z,80.49
2018-02-23T03:04:34.212Z,80.4
2018-02-23T03:05:00.322Z,80.3
2018-02-23T03:05:26.427Z,80.4
2018-02-23T03:05:52.527Z,80.21
2018-02-23T03:06:18.622Z,80.4
2018-02-23T03:06:44.725Z,80.3
2018-02-23T03:07:10.819Z,80.21
2018-02-23T03:07:36.916Z,80.21
2018-02-23T03:08:03.012Z,80.21
2018-02-23T03:08:29.114Z,80.49
2018-02-23T03:08:55.236Z,80.4
2018-02-23T03:09:21.335Z,80.3
2018-02-23T03:09:47.433Z,80.4
2018-02-23T03:10:13.532Z,80.4
2018-02-23T03:10:39.628Z,80.4
2018-02-23T03:11:05.730Z,80.3
2018-02-23T03:11:31.825Z,80.11
2018-02-23T03:11:57.930Z,80.3
2018-02-23T03:12:24.053Z,80.21
2018-02-23T03:12:50.174Z,80.4
2018-02-23T03:13:16.282Z,80.4
2018-02-23T03:13:42.388Z,80.58
2018-02-23T03:14:08.482Z,80.49
2018-02-23T03:14:34.586Z,80.3
2018-02-23T03:15:00.689Z,80.21
2018-02-23T03:15:26.803Z,80.58
2018-02-23T03:15:52.907Z,80.58
2018-02-23T03:16:19.001Z,80.58
2018-02-23T03:16:45.102Z,80.21
2018-02-23T03:17:11.212Z,81.25
2018-02-23T03:17:37.317Z,81.15
2018-02-23T03:18:03.420Z,81.06
2018-02-23T03:18:29.536Z,80.58
2018-02-23T03:18:55.632Z,80.68
2018-02-23T03:19:21.736Z,80.49
2018-02-23T03:19:47.831Z,80.49
2018-02-23T03:20:13.933Z,80.4
2018-02-23T03:20:40.038Z,80.58
2018-02-23T03:21:06.155Z,80.96
2018-02-23T03:21:32.259Z,81.25
2018-02-23T03:21:58.355Z,81.34
2018-02-23T03:22:24.453Z,81.06
2018-02-23T03:22:50.555Z,81.34
2018-02-23T03:23:16.651Z,80.77
2018-02-23T03:23:42.752Z,80.58
2018-02-23T03:24:08.890Z,81.15
2018-02-23T03:24:34.987Z,80.58
2018-02-23T03:25:01.091Z,80.68
2018-02-23T03:25:27.183Z,80.3
2018-02-23T03:25:53.286Z,81.15
2018-02-23T03:26:19.381Z,81.06
2018-02-23T03:26:45.478Z,81.68
2018-02-23T03:27:11.579Z,81.15
2018-02-23T03:27:37.677Z,81.12
2018-02-23T03:28:03.778Z,81.44
2018-02-23T03:28:29.876Z,82.29
2018-02-23T03:28:55.979Z,82.29
2018-02-23T03:29:22.075Z,81.92
2018-02-23T03:29:48.178Z,81.53
2018-02-23T03:30:14.276Z,81.53
2018-02-23T03:30:40.376Z,81.34
2018-02-23T03:31:06.468Z,81.44
2018-02-23T03:31:32.577Z,81.72
2018-02-23T03:31:58.678Z,81.72
2018-02-23T03:32:24.772Z,81.63
2018-02-23T03:32:50.876Z,81.34
2018-02-23T03:33:16.968Z,81.82
2018-02-23T03:33:43.066Z,81.44
2018-02-23T03:34:09.168Z,81.72
2018-02-23T03:34:35.265Z,81.34
2018-02-23T03:35:01.368Z,81.06
2018-02-23T03:35:27.468Z,81.15
2018-02-23T03:35:53.563Z,80.96
2018-02-23T03:36:19.667Z,80.58
2018-02-23T03:36:45.760Z,80.96
2018-02-23T03:37:11.881Z,80.96
2018-02-23T03:37:38.017Z,81.06
2018-02-23T03:38:04.112Z,80.4
2018-02-23T03:38:30.217Z,80.77
2018-02-23T03:38:56.315Z,80.77
2018-02-23T03:39:22.410Z,80.87
2018-02-23T03:39:48.508Z,81.06
2018-02-23T03:40:14.610Z,81.25
2018-02-23T03:40:40.704Z,81.15
2018-02-23T03:41:06.807Z,81.34
2018-02-23T03:41:32.903Z,81.44
2018-02-23T03:41:59.028Z,80.77
2018-02-23T03:42:25.130Z,80.87
2018-02-23T03:42:51.225Z,80.3
2018-02-23T03:43:17.332Z,80.96
2018-02-23T03:43:43.428Z,81.44
2018-02-23T03:44:09.525Z,80.77
2018-02-23T03:44:35.631Z,80.87
2018-02-23T03:45:01.725Z,81.06
2018-02-23T03:45:27.824Z,80.96
2018-02-23T03:45:53.919Z,80.87
2018-02-23T03:46:20.016Z,81.44
2018-02-23T03:46:46.151Z,81.15
2018-02-23T03:47:12.217Z,81.34
2018-02-23T03:47:38.315Z,81.72
2018-02-23T03:48:04.418Z,81.15
2018-02-23T03:48:30.515Z,81.34
2018-02-23T03:48:56.620Z,81.44
2018-02-23T03:49:22.722Z,81.34
2018-02-23T03:49:48.816Z,81.49
2018-02-23T03:50:14.914Z,81.77
2018-02-23T03:50:41.015Z,81.49
2018-02-23T03:51:07.111Z,82.15
2018-02-23T03:51:33.209Z,82.25
2018-02-23T03:51:59.302Z,81.92
2018-02-23T03:52:25.402Z,82.15
2018-02-23T03:52:51.500Z,82.15
2018-02-23T03:53:17.602Z,82.15
2018-02-23T03:53:43.699Z,81.96
2018-02-23T03:54:09.804Z,82.15
2018-02-23T03:54:35.903Z,82.2
2018-02-23T03:55:02.001Z,82.2
2018-02-23T03:55:28.101Z,82.34
2018-02-23T03:55:54.200Z,82.2
2018-02-23T03:56:20.300Z,82.2
2018-02-23T03:56:46.396Z,81.82
2018-02-23T03:57:12.503Z,81.68
2018-02-23T03:57:38.600Z,82.06
2018-02-23T03:58:04.695Z,81.77
2018-02-23T03:58:30.801Z,82.44
2018-02-23T03:58:56.894Z,82.44
2018-02-23T03:59:23.000Z,82.63
2018-02-23T03:59:49.101Z,82.72
2018-02-23T04:00:15.196Z,82.82
2018-02-23T04:00:41.292Z,82.53
2018-02-23T04:01:07.413Z,82.63
2018-02-23T04:01:33.513Z,82.53
2018-02-23T04:01:59.608Z,82.82
2018-02-23T04:02:25.718Z,82.63
2018-02-23T04:02:51.848Z,82.44
2018-02-23T04:03:17.950Z,82.44
2018-02-23T04:03:44.046Z,82.53
2018-02-23T04:04:10.157Z,82.72
2018-02-23T04:04:36.247Z,82.72
2018-02-23T04:05:02.343Z,82.72
2018-02-23T04:05:28.442Z,83.39
2018-02-23T04:05:54.540Z,83.1
2018-02-23T04:06:20.639Z,83.29
2018-02-23T04:06:46.743Z,83.1
2018-02-23T04:07:12.847Z,83.01
2018-02-23T04:07:38.943Z,83.1
2018-02-23T04:08:05.046Z,83.39
2018-02-23T04:08:31.141Z,83.2
2018-02-23T04:08:57.243Z,83.1
2018-02-23T04:09:23.348Z,83.2
2018-02-23T04:09:49.448Z,83.1
2018-02-23T04:10:15.549Z,83.01
2018-02-23T04:10:41.643Z,83.39
2018-02-23T04:11:07.744Z,83.1
2018-02-23T04:11:33.837Z,83.1
2018-02-23T04:11:59.934Z,83.2
2018-02-23T04:12:26.042Z,83.2
2018-02-23T04:12:52.145Z,83.2
2018-02-23T04:13:18.243Z,83.01
2018-02-23T04:13:44.344Z,82.91
2018-02-23T04:14:10.443Z,83.1
2018-02-23T04:14:36.535Z,83.01
2018-02-23T04:15:02.638Z,83.1
2018-02-23T04:15:28.737Z,83.1
2018-02-23T04:15:54.832Z,83.58
2018-02-23T04:16:20.952Z,83.58
2018-02-23T04:16:47.047Z,83.58
2018-02-23T04:17:13.154Z,83.58
2018-02-23T04:17:39.252Z,83.29
2018-02-23T04:18:05.343Z,83.1
2018-02-23T04:18:31.448Z,83.29
2018-02-23T04:18:57.547Z,83.1
2018-02-23T04:19:23.661Z,83.1
2018-02-23T04:19:49.761Z,83.29
2018-02-23T04:20:15.881Z,83.1
2018-02-23T04:20:41.981Z,83.48
2018-02-23T04:21:08.074Z,83.48
2018-02-23T04:21:34.172Z,83.86
2018-02-23T04:22:00.275Z,83.95
2018-02-23T04:22:26.374Z,83.76
2018-02-23T04:22:52.469Z,83.95
2018-02-23T04:23:18.579Z,83.58
2018-02-23T04:23:44.672Z,83.29
2018-02-23T04:24:10.779Z,83.76
2018-02-23T04:24:36.883Z,83.76
2018-02-23T04:25:02.978Z,84.14
2018-02-23T04:25:29.080Z,84.05
2018-02-23T04:25:55.175Z,84.23
2018-02-23T04:26:21.284Z,83.95
2018-02-23T04:26:47.397Z,84.05
2018-02-23T04:27:13.497Z,84.14
2018-02-23T04:27:39.595Z,84.14
2018-02-23T04:28:05.690Z,84.14
2018-02-23T04:28:31.817Z,84.05
2018-02-23T04:28:57.890Z,84.05
2018-02-23T04:29:23.988Z,83.67
2018-02-23T04:29:50.107Z,83.95
2018-02-23T04:30:16.195Z,84.33
2018-02-23T04:30:42.297Z,84.05
2018-02-23T04:31:08.418Z,83.86
2018-02-23T04:31:34.519Z,84.23
2018-02-23T04:32:00.621Z,84.05
2018-02-23T04:32:26.717Z,84.14
2018-02-23T04:32:52.818Z,84.14
2018-02-23T04:33:18.914Z,84.23
2018-02-23T04:33:45.012Z,83.95
2018-02-23T04:34:11.109Z,84.23
2018-02-23T04:34:37.216Z,84.05
2018-02-23T04:35:03.308Z,84.71
2018-02-23T04:35:29.407Z,84.71
2018-02-23T04:35:55.502Z,84.71
2018-02-23T04:36:21.596Z,84.42
2018-02-23T04:36:47.699Z,84.61
2018-02-23T04:37:13.792Z,84.61
2018-02-23T04:37:39.896Z,84.61
2018-02-23T04:38:05.996Z,84.42
2018-02-23T04:38:32.094Z,84.52
2018-02-23T04:38:58.184Z,84.23
2018-02-23T04:39:24.285Z,84.14
2018-02-23T04:39:50.386Z,84.42
2018-02-23T04:40:16.488Z,84.33
2018-02-23T04:40:42.583Z,84.42
2018-02-23T04:41:08.677Z,84.61
2018-02-23T04:41:34.778Z,84.52
2018-02-23T04:42:00.874Z,84.61
2018-02-23T04:42:26.970Z,84.23
2018-02-23T04:42:53.091Z,84.52
2018-02-23T04:43:19.186Z,84.71
2018-02-23T04:43:45.290Z,85.28
2018-02-23T04:44:11.387Z,84.71
2018-02-23T04:44:37.491Z,84.61
2018-02-23T04:45:03.592Z,84.33
2018-02-23T04:45:29.687Z,84.42
2018-02-23T04:45:55.785Z,84.71
2018-02-23T04:46:21.887Z,84.42
2018-02-23T04:46:48.007Z,84.71
2018-02-23T04:47:14.099Z,84.61
2018-02-23T04:47:40.203Z,84.33
2018-02-23T04:48:06.298Z,84.23
2018-02-23T04:48:32.400Z,84.33
2018-02-23T04:48:58.495Z,84.33
2018-02-23T04:49:24.599Z,84.33
2018-02-23T04:49:50.688Z,84.33
2018-02-23T04:50:16.788Z,84.33
2018-02-23T04:50:42.887Z,84.33
2018-02-23T04:51:08.997Z,84.33
2018-02-23T04:51:35.094Z,84.52
2018-02-23T04:52:01.214Z,84.9
2018-02-23T04:52:27.311Z,84.9
2018-02-23T04:52:53.405Z,84.42
2018-02-23T04:53:19.508Z,84.05
2018-02-23T04:53:45.604Z,84.14
2018-02-23T04:54:11.707Z,84.33
2018-02-23T04:54:37.807Z,84.52
2018-02-23T04:55:03.900Z,84.71
2018-02-23T04:55:30.023Z,84.33
2018-02-23T04:55:56.113Z,84.42
2018-02-23T04:56:22.216Z,85.09
2018-02-23T04:56:48.313Z,84.71
2018-02-23T04:57:14.419Z,84.77
2018-02-23T04:57:40.510Z,85.14
2018-02-23T04:58:06.622Z,85.24
2018-02-23T04:58:32.723Z,85.42
2018-02-23T04:58:58.828Z,85.52
2018-02-23T04:59:24.939Z,85.42
2018-02-23T04:59:51.035Z,85.8
2018-02-23T05:00:17.140Z,85.61
2018-02-23T05:00:43.238Z,85.33
2018-02-23T05:01:09.336Z,85.42
2018-02-23T05:01:35.435Z,85.71
2018-02-23T05:02:01.555Z,85.9
2018-02-23T05:02:27.676Z,86.56
2018-02-23T05:02:53.754Z,86.47
2018-02-23T05:03:19.867Z,86.28
2018-02-23T05:03:45.968Z,86.28
2018-02-23T05:04:12.068Z,86.37
2018-02-23T05:04:38.165Z,86.66
2018-02-23T05:05:04.262Z,86.66
2018-02-23T05:05:30.380Z,86.56
2018-02-23T05:05:56.482Z,86.94
2018-02-23T05:06:22.577Z,86.85
2018-02-23T05:06:48.689Z,87.04
2018-02-23T05:07:14.792Z,87.13
2018-02-23T05:07:40.887Z,86.94
2018-02-23T05:08:06.995Z,87.04
2018-02-23T05:08:33.126Z,87.04
2018-02-23T05:08:59.221Z,87.23
2018-02-23T05:09:25.315Z,86.85
2018-02-23T05:09:51.420Z,87.32
2018-02-23T05:10:17.519Z,87.6
2018-02-23T05:10:43.623Z,87.7
2018-02-23T05:11:09.717Z,87.51
2018-02-23T05:11:35.825Z,87.41
2018-02-23T05:12:01.929Z,87.41
2018-02-23T05:12:28.043Z,87.6
2018-02-23T05:12:54.144Z,87.7
2018-02-23T05:13:20.241Z,87.41
2018-02-23T05:13:46.341Z,87.32
2018-02-23T05:14:12.435Z,87.6
2018-02-23T05:14:38.536Z,87.32
2018-02-23T05:15:04.638Z,87.04
2018-02-23T05:15:30.739Z,87.41
2018-02-23T05:15:56.831Z,87.51
2018-02-23T05:16:22.928Z,87.23
2018-02-23T05:16:49.035Z,87.51
2018-02-23T05:17:15.128Z,87.23
2018-02-23T05:17:41.236Z,87.51
2018-02-23T05:18:07.331Z,87.41
2018-02-23T05:18:33.435Z,87.79
2018-02-23T05:18:59.526Z,88.07
2018-02-23T05:19:25.623Z,87.98
2018-02-23T05:19:51.727Z,87.79
2018-02-23T05:20:17.824Z,88.07
2018-02-23T05:20:43.923Z,88.07
2018-02-23T05:21:10.023Z,88.17
2018-02-23T05:21:36.128Z,88.07
2018-02-23T05:22:02.219Z,88.17
2018-02-23T05:22:28.317Z,88.17
2018-02-23T05:22:54.420Z,88.17
2018-02-23T05:23:20.534Z,88.17
2018-02-23T05:23:46.630Z,88.07
2018-02-23T05:24:12.727Z,88.07
2018-02-23T05:24:38.831Z,88.07
2018-02-23T05:25:04.926Z,88.07
2018-02-23T05:25:31.025Z,87.7
2018-02-23T05:25:57.125Z,88.07
2018-02-23T05:26:23.226Z,87.41
2018-02-23T05:26:49.326Z,87.51
2018-02-23T05:27:15.421Z,87.23
2018-02-23T05:27:41.515Z,87.41
2018-02-23T05:28:07.634Z,87.6
2018-02-23T05:28:33.726Z,87.7
2018-02-23T05:28:59.829Z,87.6
2018-02-23T05:29:25.922Z,87.98
2018-02-23T05:29:52.022Z,87.88
2018-02-23T05:30:18.133Z,87.93
2018-02-23T05:30:44.221Z,87.65
2018-02-23T05:31:10.321Z,87.65
2018-02-23T05:31:36.423Z,87.51
2018-02-23T05:32:02.523Z,88.12
2018-02-23T05:32:28.623Z,87.84
2018-02-23T05:32:54.713Z,88.03
2018-02-23T05:33:20.809Z,87.93
2018-02-23T05:33:46.918Z,88.22
2018-02-23T05:34:13.016Z,88.03
2018-02-23T05:34:39.108Z,88.03
2018-02-23T05:35:05.204Z,87.84
2018-02-23T05:35:31.304Z,87.65
2018-02-23T05:35:57.408Z,88.22
2018-02-23T05:36:23.507Z,88.22
2018-02-23T05:36:49.605Z,88.5
2018-02-23T05:37:15.720Z,87.74